AFR5746 LFPG-LFLL
Flight info
| Callsign | AFR5746 |
|---|---|
| Flight time | 0h 46m |
| Altitude | 27000 |
| Route | OKASI DCT OKEKO DCT OKEPI DCT MOU/N0349F190 A3 FEDZI |
| Aircraft | A320/M-SDE3FGHIRWY/LB1 |
Departure
| Time | 2026-05-08 20:01 |
|---|---|
| Airport | Charles de Gaulle International Airport (LFPG) |
Arrival
| Time | 2026-05-08 20:47 |
|---|---|
| Airport | Lyon Saint-Exupéry Airport (LFLL) |
| Time | Latitude | Longitude | Altitude | Speed | Heading |
|---|---|---|---|---|---|
| 2026-05-08 19:18 | 49.00652 | 2.58011 | 354 ft | 0 kts | 268° |
| 2026-05-08 19:47 | 49.00652 | 2.58014 | 335 ft | 2 kts | 268° |
| 2026-05-08 19:47 | 49.00653 | 2.58054 | 358 ft | 4 kts | 273° |
| 2026-05-08 19:47 | 49.00650 | 2.58095 | 363 ft | 4 kts | 283° |
| 2026-05-08 19:47 | 49.00640 | 2.58132 | 363 ft | 4 kts | 318° |
| 2026-05-08 19:48 | 49.00627 | 2.58143 | 363 ft | 1 kts | 355° |
| 2026-05-08 19:48 | 49.00625 | 2.58143 | 363 ft | 0 kts | 355° |
| 2026-05-08 19:51 | 49.00626 | 2.58143 | 363 ft | 2 kts | 355° |
| 2026-05-08 19:51 | 49.00699 | 2.58134 | 353 ft | 13 kts | 355° |
| 2026-05-08 19:51 | 49.00723 | 2.58131 | 355 ft | 0 kts | 356° |
| 2026-05-08 19:52 | 49.00728 | 2.58131 | 353 ft | 5 kts | 356° |
| 2026-05-08 19:53 | 49.00796 | 2.58122 | 355 ft | 12 kts | 355° |
| 2026-05-08 19:53 | 49.00881 | 2.58094 | 359 ft | 13 kts | 323° |
| 2026-05-08 19:53 | 49.00901 | 2.57974 | 355 ft | 11 kts | 264° |
| 2026-05-08 19:53 | 49.00893 | 2.57860 | 359 ft | 11 kts | 264° |
| 2026-05-08 19:54 | 49.00886 | 2.57733 | 355 ft | 13 kts | 265° |
| 2026-05-08 19:54 | 49.00879 | 2.57589 | 361 ft | 14 kts | 266° |
| 2026-05-08 19:54 | 49.00872 | 2.57427 | 355 ft | 16 kts | 265° |
| 2026-05-08 19:54 | 49.00863 | 2.57248 | 358 ft | 18 kts | 265° |
| 2026-05-08 19:55 | 49.00854 | 2.57048 | 355 ft | 20 kts | 263° |
| 2026-05-08 19:55 | 49.00840 | 2.56825 | 355 ft | 22 kts | 265° |
| 2026-05-08 19:55 | 49.00827 | 2.56592 | 355 ft | 23 kts | 265° |
| 2026-05-08 19:55 | 49.00809 | 2.56345 | 362 ft | 24 kts | 263° |
| 2026-05-08 19:56 | 49.00786 | 2.56088 | 355 ft | 25 kts | 261° |
| 2026-05-08 19:56 | 49.00757 | 2.55819 | 355 ft | 25 kts | 262° |
| 2026-05-08 19:56 | 49.00736 | 2.55560 | 363 ft | 25 kts | 263° |
| 2026-05-08 19:56 | 49.00704 | 2.55316 | 359 ft | 18 kts | 237° |
| 2026-05-08 19:57 | 49.00610 | 2.55258 | 355 ft | 15 kts | 167° |
| 2026-05-08 19:57 | 49.00480 | 2.55314 | 356 ft | 27 kts | 164° |
| 2026-05-08 19:57 | 49.00291 | 2.55395 | 355 ft | 27 kts | 164° |
| 2026-05-08 19:57 | 49.00127 | 2.55470 | 359 ft | 20 kts | 162° |
| 2026-05-08 19:58 | 48.99988 | 2.55532 | 358 ft | 21 kts | 166° |
| 2026-05-08 19:58 | 48.99886 | 2.55597 | 362 ft | 13 kts | 140° |
| 2026-05-08 19:58 | 48.99840 | 2.55710 | 356 ft | 12 kts | 109° |
| 2026-05-08 19:58 | 48.99816 | 2.55835 | 354 ft | 12 kts | 105° |
| 2026-05-08 19:59 | 48.99796 | 2.55966 | 359 ft | 13 kts | 100° |
| 2026-05-08 19:59 | 48.99735 | 2.56030 | 354 ft | 11 kts | 173° |
| 2026-05-08 19:59 | 48.99667 | 2.56041 | 357 ft | 9 kts | 174° |
| 2026-05-08 19:59 | 48.99617 | 2.56069 | 358 ft | 6 kts | 124° |
| 2026-05-08 20:00 | 48.99615 | 2.56108 | 360 ft | 0 kts | 85° |
| 2026-05-08 20:00 | 48.99615 | 2.56121 | 355 ft | 8 kts | 85° |
| 2026-05-08 20:00 | 48.99647 | 2.56666 | 356 ft | 95 kts | 85° |
| 2026-05-08 20:01 | 48.99723 | 2.58056 | 368 ft | 163 kts | 86° |
| 2026-05-08 20:01 | 48.99744 | 2.59828 | 1049 ft | 171 kts | 90° |
| 2026-05-08 20:01 | 48.99784 | 2.61632 | 2022 ft | 170 kts | 84° |
| 2026-05-08 20:01 | 48.99894 | 2.63427 | 2647 ft | 175 kts | 84° |
| 2026-05-08 20:02 | 49.00024 | 2.65391 | 2894 ft | 198 kts | 84° |
| 2026-05-08 20:02 | 49.00169 | 2.67614 | 3185 ft | 223 kts | 84° |
| 2026-05-08 20:02 | 49.00269 | 2.69232 | 3427 ft | 239 kts | 85° |
| 2026-05-08 20:02 | 49.00473 | 2.72735 | 4201 ft | 257 kts | 85° |
| 2026-05-08 20:03 | 49.00625 | 2.75475 | 5018 ft | 262 kts | 86° |
| 2026-05-08 20:03 | 49.00699 | 2.78271 | 5819 ft | 266 kts | 96° |
| 2026-05-08 20:03 | 49.00541 | 2.80171 | 6359 ft | 269 kts | 99° |
| 2026-05-08 20:03 | 49.00253 | 2.83017 | 7118 ft | 275 kts | 101° |
| 2026-05-08 20:04 | 48.99939 | 2.85884 | 7853 ft | 281 kts | 101° |
| 2026-05-08 20:04 | 48.99609 | 2.88843 | 8602 ft | 286 kts | 101° |
| 2026-05-08 20:04 | 48.99278 | 2.91856 | 9349 ft | 291 kts | 101° |
| 2026-05-08 20:04 | 48.98947 | 2.94927 | 10078 ft | 297 kts | 101° |
| 2026-05-08 20:05 | 48.98397 | 2.98001 | 10513 ft | 310 kts | 120° |
| 2026-05-08 20:05 | 48.96937 | 3.00469 | 10778 ft | 323 kts | 150° |
| 2026-05-08 20:05 | 48.94837 | 3.01645 | 11345 ft | 325 kts | 176° |
| 2026-05-08 20:05 | 48.92609 | 3.01294 | 11999 ft | 325 kts | 202° |
| 2026-05-08 20:06 | 48.90598 | 2.99683 | 12695 ft | 328 kts | 212° |
| 2026-05-08 20:06 | 48.88634 | 2.97872 | 13380 ft | 332 kts | 213° |
| 2026-05-08 20:06 | 48.86656 | 2.96018 | 14038 ft | 336 kts | 213° |
| 2026-05-08 20:06 | 48.84658 | 2.94132 | 14641 ft | 340 kts | 213° |
| 2026-05-08 20:07 | 48.82643 | 2.92229 | 15263 ft | 343 kts | 213° |
| 2026-05-08 20:07 | 48.80634 | 2.90336 | 15886 ft | 345 kts | 213° |
| 2026-05-08 20:07 | 48.78577 | 2.88411 | 16513 ft | 348 kts | 213° |
| 2026-05-08 20:07 | 48.76509 | 2.86488 | 17122 ft | 351 kts | 213° |
| 2026-05-08 20:08 | 48.74372 | 2.84628 | 17628 ft | 359 kts | 205° |
| 2026-05-08 20:08 | 48.71929 | 2.83698 | 18123 ft | 369 kts | 186° |
| 2026-05-08 20:08 | 48.69352 | 2.84098 | 18629 ft | 378 kts | 168° |
| 2026-05-08 20:08 | 48.66797 | 2.85126 | 19099 ft | 382 kts | 167° |
| 2026-05-08 20:09 | 48.64222 | 2.86199 | 19569 ft | 386 kts | 167° |
| 2026-05-08 20:09 | 48.61609 | 2.87295 | 20040 ft | 391 kts | 166° |
| 2026-05-08 20:09 | 48.58970 | 2.88400 | 20505 ft | 395 kts | 166° |
| 2026-05-08 20:09 | 48.56306 | 2.89511 | 20971 ft | 400 kts | 166° |
| 2026-05-08 20:10 | 48.53613 | 2.90626 | 21433 ft | 404 kts | 166° |
| 2026-05-08 20:10 | 48.50885 | 2.91750 | 21899 ft | 408 kts | 166° |
| 2026-05-08 20:10 | 48.48137 | 2.92879 | 22357 ft | 412 kts | 166° |
| 2026-05-08 20:10 | 48.45382 | 2.94006 | 22817 ft | 416 kts | 166° |
| 2026-05-08 20:11 | 48.42570 | 2.95155 | 23272 ft | 420 kts | 166° |
| 2026-05-08 20:11 | 48.39731 | 2.96315 | 23695 ft | 424 kts | 166° |
| 2026-05-08 20:11 | 48.36872 | 2.97484 | 24070 ft | 427 kts | 166° |
| 2026-05-08 20:11 | 48.34002 | 2.98658 | 24456 ft | 430 kts | 166° |
| 2026-05-08 20:12 | 48.31101 | 2.99843 | 24843 ft | 432 kts | 166° |
| 2026-05-08 20:12 | 48.28194 | 3.01029 | 25226 ft | 434 kts | 166° |
| 2026-05-08 20:12 | 48.25270 | 3.02218 | 25600 ft | 436 kts | 166° |
| 2026-05-08 20:12 | 48.22332 | 3.03409 | 25966 ft | 438 kts | 166° |
| 2026-05-08 20:13 | 48.19380 | 3.04602 | 26329 ft | 440 kts | 166° |
| 2026-05-08 20:13 | 48.16415 | 3.05799 | 26681 ft | 442 kts | 166° |
| 2026-05-08 20:13 | 48.13476 | 3.06988 | 26980 ft | 444 kts | 166° |
| 2026-05-08 20:13 | 48.10506 | 3.08190 | 27048 ft | 436 kts | 166° |
| 2026-05-08 20:14 | 48.07623 | 3.09362 | 27055 ft | 424 kts | 166° |
| 2026-05-08 20:14 | 48.04790 | 3.10509 | 27048 ft | 420 kts | 166° |
| 2026-05-08 20:14 | 48.01967 | 3.11645 | 27053 ft | 419 kts | 167° |
| 2026-05-08 20:14 | 47.99151 | 3.12778 | 27057 ft | 418 kts | 166° |
| 2026-05-08 20:15 | 47.96347 | 3.13907 | 27046 ft | 418 kts | 167° |
| 2026-05-08 20:15 | 47.93534 | 3.15036 | 27046 ft | 417 kts | 167° |
| 2026-05-08 20:15 | 47.90732 | 3.16156 | 27051 ft | 417 kts | 167° |
| 2026-05-08 20:15 | 47.87926 | 3.17272 | 27050 ft | 417 kts | 167° |
| 2026-05-08 20:16 | 47.85123 | 3.18386 | 27040 ft | 417 kts | 167° |
| 2026-05-08 20:16 | 47.82315 | 3.19509 | 27043 ft | 416 kts | 166° |
| 2026-05-08 20:16 | 47.79552 | 3.20615 | 27037 ft | 416 kts | 166° |
| 2026-05-08 20:16 | 47.76752 | 3.21736 | 27039 ft | 416 kts | 166° |
| 2026-05-08 20:17 | 47.73954 | 3.22852 | 27042 ft | 416 kts | 166° |
| 2026-05-08 20:17 | 47.71164 | 3.23961 | 27039 ft | 415 kts | 166° |
| 2026-05-08 20:17 | 47.68366 | 3.25070 | 27036 ft | 415 kts | 167° |
| 2026-05-08 20:17 | 47.65576 | 3.26177 | 27039 ft | 415 kts | 166° |
| 2026-05-08 20:18 | 47.62785 | 3.27289 | 27037 ft | 414 kts | 166° |
| 2026-05-08 20:18 | 47.59997 | 3.28400 | 27041 ft | 414 kts | 166° |
| 2026-05-08 20:18 | 47.57216 | 3.29502 | 27044 ft | 413 kts | 166° |
| 2026-05-08 20:18 | 47.54469 | 3.30587 | 27043 ft | 413 kts | 166° |
| 2026-05-08 20:19 | 47.51689 | 3.31685 | 27038 ft | 413 kts | 166° |
| 2026-05-08 20:19 | 47.48911 | 3.32783 | 27039 ft | 412 kts | 166° |
| 2026-05-08 20:19 | 47.46137 | 3.33878 | 27035 ft | 412 kts | 166° |
| 2026-05-08 20:19 | 47.43351 | 3.34976 | 27032 ft | 412 kts | 166° |
| 2026-05-08 20:20 | 47.40621 | 3.36049 | 27032 ft | 412 kts | 166° |
| 2026-05-08 20:20 | 47.37848 | 3.37136 | 27028 ft | 411 kts | 167° |
| 2026-05-08 20:20 | 47.35078 | 3.38220 | 27023 ft | 411 kts | 166° |
| 2026-05-08 20:20 | 47.32314 | 3.39301 | 27025 ft | 411 kts | 166° |
| 2026-05-08 20:21 | 47.29550 | 3.40385 | 27025 ft | 411 kts | 166° |
| 2026-05-08 20:21 | 47.26781 | 3.41471 | 27026 ft | 411 kts | 166° |
| 2026-05-08 20:21 | 47.24018 | 3.42552 | 27029 ft | 410 kts | 166° |
| 2026-05-08 20:21 | 47.21254 | 3.43630 | 27028 ft | 410 kts | 166° |
| 2026-05-08 20:22 | 47.18500 | 3.44704 | 27027 ft | 409 kts | 166° |
| 2026-05-08 20:22 | 47.15745 | 3.45777 | 27025 ft | 409 kts | 166° |
| 2026-05-08 20:22 | 47.12998 | 3.46847 | 27023 ft | 408 kts | 166° |
| 2026-05-08 20:22 | 47.10252 | 3.47916 | 27021 ft | 408 kts | 166° |
| 2026-05-08 20:23 | 47.07506 | 3.48982 | 27020 ft | 408 kts | 166° |
| 2026-05-08 20:23 | 47.04798 | 3.50030 | 27019 ft | 407 kts | 166° |
| 2026-05-08 20:23 | 47.02053 | 3.51092 | 27017 ft | 407 kts | 166° |
| 2026-05-08 20:23 | 46.99314 | 3.52152 | 27014 ft | 407 kts | 166° |
| 2026-05-08 20:24 | 46.96580 | 3.53209 | 27012 ft | 406 kts | 166° |
| 2026-05-08 20:24 | 46.93844 | 3.54263 | 27009 ft | 406 kts | 166° |
| 2026-05-08 20:24 | 46.91115 | 3.55316 | 27006 ft | 406 kts | 166° |
| 2026-05-08 20:24 | 46.88371 | 3.56376 | 27006 ft | 406 kts | 166° |
| 2026-05-08 20:25 | 46.85644 | 3.57427 | 27005 ft | 405 kts | 166° |
| 2026-05-08 20:25 | 46.82916 | 3.58476 | 27003 ft | 405 kts | 166° |
| 2026-05-08 20:25 | 46.80221 | 3.59511 | 26979 ft | 404 kts | 166° |
| 2026-05-08 20:25 | 46.77530 | 3.60542 | 26718 ft | 395 kts | 166° |
| 2026-05-08 20:26 | 46.74880 | 3.61553 | 26294 ft | 391 kts | 166° |
| 2026-05-08 20:26 | 46.72254 | 3.62554 | 25848 ft | 389 kts | 166° |
| 2026-05-08 20:26 | 46.69675 | 3.63699 | 25383 ft | 387 kts | 160° |
| 2026-05-08 20:26 | 46.67160 | 3.65083 | 24925 ft | 385 kts | 160° |
| 2026-05-08 20:27 | 46.64660 | 3.66458 | 24437 ft | 384 kts | 160° |
| 2026-05-08 20:27 | 46.62160 | 3.67832 | 23962 ft | 382 kts | 160° |
| 2026-05-08 20:27 | 46.59676 | 3.69195 | 23458 ft | 382 kts | 160° |
| 2026-05-08 20:27 | 46.57195 | 3.70555 | 22948 ft | 379 kts | 160° |
| 2026-05-08 20:28 | 46.54731 | 3.71903 | 22479 ft | 376 kts | 160° |
| 2026-05-08 20:28 | 46.52293 | 3.73234 | 22016 ft | 373 kts | 160° |
| 2026-05-08 20:28 | 46.49859 | 3.74556 | 21548 ft | 371 kts | 161° |
| 2026-05-08 20:28 | 46.47453 | 3.75860 | 21098 ft | 368 kts | 161° |
| 2026-05-08 20:29 | 46.45094 | 3.77140 | 20711 ft | 364 kts | 161° |
| 2026-05-08 20:29 | 46.42732 | 3.78465 | 20284 ft | 361 kts | 160° |
| 2026-05-08 20:29 | 46.40403 | 3.79815 | 19813 ft | 360 kts | 160° |
| 2026-05-08 20:29 | 46.38117 | 3.81232 | 19379 ft | 359 kts | 153° |
| 2026-05-08 20:30 | 46.36082 | 3.83287 | 19006 ft | 356 kts | 140° |
| 2026-05-08 20:30 | 46.34414 | 3.85970 | 18554 ft | 358 kts | 129° |
| 2026-05-08 20:30 | 46.32916 | 3.88841 | 18093 ft | 357 kts | 130° |
| 2026-05-08 20:30 | 46.31419 | 3.91676 | 17701 ft | 353 kts | 130° |
| 2026-05-08 20:31 | 46.29928 | 3.94477 | 17299 ft | 349 kts | 130° |
| 2026-05-08 20:31 | 46.28445 | 3.97250 | 16919 ft | 346 kts | 130° |
| 2026-05-08 20:31 | 46.26980 | 3.99987 | 16544 ft | 343 kts | 130° |
| 2026-05-08 20:31 | 46.25531 | 4.02699 | 16173 ft | 340 kts | 130° |
| 2026-05-08 20:32 | 46.24115 | 4.05361 | 15807 ft | 337 kts | 129° |
| 2026-05-08 20:32 | 46.22685 | 4.08047 | 15439 ft | 335 kts | 129° |
| 2026-05-08 20:32 | 46.21268 | 4.10703 | 15077 ft | 332 kts | 129° |
| 2026-05-08 20:32 | 46.19862 | 4.13338 | 14716 ft | 330 kts | 129° |
| 2026-05-08 20:33 | 46.18465 | 4.15954 | 14355 ft | 328 kts | 129° |
| 2026-05-08 20:33 | 46.17077 | 4.18554 | 13995 ft | 326 kts | 129° |
| 2026-05-08 20:33 | 46.15693 | 4.21139 | 13625 ft | 324 kts | 129° |
| 2026-05-08 20:33 | 46.14318 | 4.23700 | 13273 ft | 321 kts | 129° |
| 2026-05-08 20:34 | 46.12956 | 4.26238 | 12910 ft | 318 kts | 129° |
| 2026-05-08 20:34 | 46.11609 | 4.28748 | 12567 ft | 315 kts | 129° |
| 2026-05-08 20:34 | 46.08968 | 4.33658 | 11890 ft | 309 kts | 129° |
| 2026-05-08 20:35 | 46.07656 | 4.36089 | 11556 ft | 306 kts | 129° |
| 2026-05-08 20:35 | 46.06357 | 4.38498 | 11227 ft | 303 kts | 129° |
| 2026-05-08 20:35 | 46.05069 | 4.40885 | 10894 ft | 300 kts | 129° |
| 2026-05-08 20:35 | 46.03795 | 4.43245 | 10564 ft | 297 kts | 129° |
| 2026-05-08 20:36 | 46.02531 | 4.45583 | 10249 ft | 294 kts | 129° |
| 2026-05-08 20:36 | 46.01284 | 4.47889 | 9980 ft | 290 kts | 129° |
| 2026-05-08 20:36 | 46.00052 | 4.50190 | 9589 ft | 289 kts | 126° |
| 2026-05-08 20:36 | 45.98992 | 4.52636 | 9265 ft | 286 kts | 123° |
| 2026-05-08 20:37 | 45.97958 | 4.55058 | 8955 ft | 283 kts | 123° |
| 2026-05-08 20:37 | 45.96928 | 4.57454 | 8645 ft | 281 kts | 123° |
| 2026-05-08 20:37 | 45.96001 | 4.59914 | 8340 ft | 280 kts | 112° |
| 2026-05-08 20:37 | 45.95515 | 4.62620 | 8026 ft | 280 kts | 98° |
| 2026-05-08 20:38 | 45.95352 | 4.65417 | 7717 ft | 280 kts | 96° |
| 2026-05-08 20:38 | 45.95192 | 4.68200 | 7402 ft | 279 kts | 96° |
| 2026-05-08 20:38 | 45.95027 | 4.70982 | 7102 ft | 278 kts | 96° |
| 2026-05-08 20:38 | 45.94862 | 4.73712 | 6787 ft | 277 kts | 97° |
| 2026-05-08 20:39 | 45.94693 | 4.76468 | 6482 ft | 276 kts | 97° |
| 2026-05-08 20:39 | 45.94525 | 4.79213 | 6172 ft | 275 kts | 97° |
| 2026-05-08 20:39 | 45.94359 | 4.81943 | 5865 ft | 274 kts | 97° |
| 2026-05-08 20:39 | 45.94194 | 4.84672 | 5564 ft | 273 kts | 97° |
| 2026-05-08 20:40 | 45.94029 | 4.87378 | 5234 ft | 272 kts | 97° |
| 2026-05-08 20:40 | 45.93864 | 4.90073 | 4899 ft | 270 kts | 97° |
| 2026-05-08 20:40 | 45.93701 | 4.92724 | 4735 ft | 259 kts | 98° |
| 2026-05-08 20:40 | 45.93548 | 4.95235 | 4631 ft | 245 kts | 98° |
| 2026-05-08 20:41 | 45.93400 | 4.97622 | 4530 ft | 236 kts | 98° |
| 2026-05-08 20:41 | 45.93257 | 4.99900 | 4430 ft | 227 kts | 98° |
| 2026-05-08 20:41 | 45.93104 | 5.02104 | 4325 ft | 215 kts | 104° |
| 2026-05-08 20:41 | 45.92633 | 5.04061 | 4257 ft | 202 kts | 123° |
| 2026-05-08 20:42 | 45.91819 | 5.05584 | 4223 ft | 183 kts | 140° |
| 2026-05-08 20:42 | 45.90827 | 5.06609 | 4106 ft | 169 kts | 155° |
| 2026-05-08 20:42 | 45.89750 | 5.07160 | 3939 ft | 160 kts | 171° |
| 2026-05-08 20:42 | 45.88663 | 5.07333 | 3756 ft | 155 kts | 176° |
| 2026-05-08 20:43 | 45.87608 | 5.07463 | 3559 ft | 150 kts | 176° |
| 2026-05-08 20:43 | 45.86589 | 5.07589 | 3394 ft | 143 kts | 176° |
| 2026-05-08 20:43 | 45.85605 | 5.07709 | 3200 ft | 141 kts | 176° |
| 2026-05-08 20:43 | 45.84629 | 5.07829 | 3009 ft | 140 kts | 176° |
| 2026-05-08 20:44 | 45.83659 | 5.07947 | 2819 ft | 139 kts | 176° |
| 2026-05-08 20:44 | 45.82691 | 5.08065 | 2636 ft | 139 kts | 175° |
| 2026-05-08 20:44 | 45.81739 | 5.08182 | 2454 ft | 138 kts | 175° |
| 2026-05-08 20:44 | 45.80779 | 5.08299 | 2269 ft | 139 kts | 175° |
| 2026-05-08 20:45 | 45.79821 | 5.08416 | 2086 ft | 137 kts | 175° |
| 2026-05-08 20:45 | 45.79180 | 5.08494 | 1967 ft | 137 kts | 175° |
| 2026-05-08 20:45 | 45.77916 | 5.08648 | 1717 ft | 137 kts | 174° |
| 2026-05-08 20:45 | 45.76965 | 5.08764 | 1524 ft | 137 kts | 174° |
| 2026-05-08 20:46 | 45.76334 | 5.08841 | 1398 ft | 137 kts | 174° |
| 2026-05-08 20:46 | 45.75380 | 5.08957 | 1212 ft | 138 kts | 175° |
| 2026-05-08 20:46 | 45.74427 | 5.09073 | 1025 ft | 137 kts | 174° |
| 2026-05-08 20:46 | 45.73476 | 5.09189 | 841 ft | 136 kts | 174° |
| 2026-05-08 20:47 | 45.72608 | 5.09300 | 805 ft | 95 kts | 174° |
| 2026-05-08 20:47 | 45.72252 | 5.09329 | 810 ft | 8 kts | 189° |
| 2026-05-08 20:47 | 45.72165 | 5.09312 | 811 ft | 21 kts | 192° |
| 2026-05-08 20:47 | 45.72031 | 5.09240 | 812 ft | 15 kts | 205° |
| 2026-05-08 20:48 | 45.71979 | 5.09161 | 812 ft | 12 kts | 258° |
| 2026-05-08 20:48 | 45.71974 | 5.09044 | 810 ft | 11 kts | 268° |
| 2026-05-08 20:48 | 45.71966 | 5.08910 | 811 ft | 20 kts | 264° |
| 2026-05-08 20:48 | 45.71944 | 5.08643 | 809 ft | 21 kts | 266° |
| 2026-05-08 20:49 | 45.71939 | 5.08499 | 809 ft | 12 kts | 272° |
| 2026-05-08 20:49 | 45.71998 | 5.08458 | 809 ft | 10 kts | 359° |
| 2026-05-08 20:49 | 45.72074 | 5.08447 | 807 ft | 16 kts | 354° |
| 2026-05-08 20:49 | 45.72199 | 5.08428 | 805 ft | 15 kts | 355° |
| 2026-05-08 20:50 | 45.72261 | 5.08354 | 804 ft | 12 kts | 261° |
| 2026-05-08 20:50 | 45.72242 | 5.08313 | 805 ft | 2 kts | 199° |
| 2026-05-08 20:50 | 45.72208 | 5.08314 | 805 ft | 11 kts | 178° |
| 2026-05-08 20:50 | 45.72142 | 5.08295 | 806 ft | 9 kts | 241° |
| 2026-05-08 20:51 | 45.72146 | 5.08237 | 806 ft | 5 kts | 268° |
| 2026-05-08 20:51 | 45.72146 | 5.08197 | 806 ft | 3 kts | 269° |
| 2026-05-08 20:51 | 45.72146 | 5.08182 | 806 ft | 0 kts | 269° |
| 2026-05-08 20:59 | 45.72146 | 5.08183 | 806 ft | 0 kts | 269° |